sensor_id;sensor_type;location;lat;lon;timestamp;P1;durP1;ratioP1;P2;durP2;ratioP2
21769;SDS011;11046;49.558;8.674;2022-11-20T00:00:38;37.37;;;15.60;;
21769;SDS011;11046;49.558;8.674;2022-11-20T00:03:38;38.00;;;15.60;;
21769;SDS011;11046;49.558;8.674;2022-11-20T00:06:39;32.07;;;14.70;;
21769;SDS011;11046;49.558;8.674;2022-11-20T00:09:40;34.53;;;14.93;;
21769;SDS011;11046;49.558;8.674;2022-11-20T00:12:40;35.83;;;14.73;;
21769;SDS011;11046;49.558;8.674;2022-11-20T00:15:41;37.63;;;15.60;;
21769;SDS011;11046;49.558;8.674;2022-11-20T00:18:41;35.50;;;14.87;;
21769;SDS011;11046;49.558;8.674;2022-11-20T00:21:42;30.27;;;14.33;;
21769;SDS011;11046;49.558;8.674;2022-11-20T00:24:43;33.33;;;13.93;;
21769;SDS011;11046;49.558;8.674;2022-11-20T00:27:43;34.00;;;14.67;;
21769;SDS011;11046;49.558;8.674;2022-11-20T00:30:44;30.00;;;13.77;;
21769;SDS011;11046;49.558;8.674;2022-11-20T00:33:45;34.47;;;14.90;;
21769;SDS011;11046;49.558;8.674;2022-11-20T00:36:46;32.20;;;14.10;;
21769;SDS011;11046;49.558;8.674;2022-11-20T00:39:47;31.33;;;14.43;;
21769;SDS011;11046;49.558;8.674;2022-11-20T00:42:47;31.10;;;13.03;;
21769;SDS011;11046;49.558;8.674;2022-11-20T00:45:48;30.27;;;13.13;;
21769;SDS011;11046;49.558;8.674;2022-11-20T00:48:48;27.60;;;12.53;;
21769;SDS011;11046;49.558;8.674;2022-11-20T00:51:49;27.83;;;12.17;;
21769;SDS011;11046;49.558;8.674;2022-11-20T00:54:50;26.43;;;12.40;;
21769;SDS011;11046;49.558;8.674;2022-11-20T00:57:50;27.93;;;12.13;;
21769;SDS011;11046;49.558;8.674;2022-11-20T01:00:51;25.80;;;12.73;;
21769;SDS011;11046;49.558;8.674;2022-11-20T01:03:52;31.30;;;13.20;;
21769;SDS011;11046;49.558;8.674;2022-11-20T01:06:55;32.00;;;13.70;;
21769;SDS011;11046;49.558;8.674;2022-11-20T01:09:55;28.80;;;12.80;;
21769;SDS011;11046;49.558;8.674;2022-11-20T01:12:56;30.87;;;12.50;;
21769;SDS011;11046;49.558;8.674;2022-11-20T01:16:16;28.37;;;12.73;;
21769;SDS011;11046;49.558;8.674;2022-11-20T01:19:19;31.30;;;12.70;;
21769;SDS011;11046;49.558;8.674;2022-11-20T01:22:22;29.37;;;13.03;;
21769;SDS011;11046;49.558;8.674;2022-11-20T01:25:22;32.63;;;13.50;;
21769;SDS011;11046;49.558;8.674;2022-11-20T01:28:23;29.30;;;13.13;;
21769;SDS011;11046;49.558;8.674;2022-11-20T01:31:24;29.70;;;12.73;;
21769;SDS011;11046;49.558;8.674;2022-11-20T01:34:27;32.50;;;12.73;;
21769;SDS011;11046;49.558;8.674;2022-11-20T01:37:27;30.77;;;12.67;;
21769;SDS011;11046;49.558;8.674;2022-11-20T01:40:28;32.57;;;12.93;;
21769;SDS011;11046;49.558;8.674;2022-11-20T01:43:28;30.30;;;12.73;;
21769;SDS011;11046;49.558;8.674;2022-11-20T01:46:30;29.40;;;12.67;;
21769;SDS011;11046;49.558;8.674;2022-11-20T01:49:39;28.93;;;12.90;;
21769;SDS011;11046;49.558;8.674;2022-11-20T01:55:49;31.80;;;13.40;;
21769;SDS011;11046;49.558;8.674;2022-11-20T01:58:56;31.53;;;13.13;;
21769;SDS011;11046;49.558;8.674;2022-11-20T02:01:59;31.07;;;13.20;;
21769;SDS011;11046;49.558;8.674;2022-11-20T02:05:02;30.53;;;14.17;;
21769;SDS011;11046;49.558;8.674;2022-11-20T02:08:11;31.03;;;13.70;;
21769;SDS011;11046;49.558;8.674;2022-11-20T02:11:13;28.73;;;12.73;;
21769;SDS011;11046;49.558;8.674;2022-11-20T02:14:13;31.77;;;13.47;;
21769;SDS011;11046;49.558;8.674;2022-11-20T02:17:15;32.07;;;13.87;;
21769;SDS011;11046;49.558;8.674;2022-11-20T02:20:15;35.97;;;14.90;;
21769;SDS011;11046;49.558;8.674;2022-11-20T02:26:20;34.27;;;14.33;;
21769;SDS011;11046;49.558;8.674;2022-11-20T02:32:35;32.33;;;14.10;;
21769;SDS011;11046;49.558;8.674;2022-11-20T02:35:38;29.10;;;13.53;;
21769;SDS011;11046;49.558;8.674;2022-11-20T02:38:41;28.33;;;12.10;;
21769;SDS011;11046;49.558;8.674;2022-11-20T02:41:43;32.27;;;12.90;;
21769;SDS011;11046;49.558;8.674;2022-11-20T02:44:44;26.10;;;11.90;;
21769;SDS011;11046;49.558;8.674;2022-11-20T02:47:44;27.13;;;11.47;;
21769;SDS011;11046;49.558;8.674;2022-11-20T02:50:45;25.33;;;11.70;;
21769;SDS011;11046;49.558;8.674;2022-11-20T02:53:45;23.07;;;10.50;;
21769;SDS011;11046;49.558;8.674;2022-11-20T02:56:46;19.53;;;10.03;;
21769;SDS011;11046;49.558;8.674;2022-11-20T02:59:47;24.43;;;10.80;;
21769;SDS011;11046;49.558;8.674;2022-11-20T03:02:47;23.30;;;11.13;;
21769;SDS011;11046;49.558;8.674;2022-11-20T03:05:48;23.33;;;10.50;;
21769;SDS011;11046;49.558;8.674;2022-11-20T03:08:48;23.60;;;11.17;;
21769;SDS011;11046;49.558;8.674;2022-11-20T03:11:49;24.60;;;10.43;;
21769;SDS011;11046;49.558;8.674;2022-11-20T03:14:49;30.60;;;11.80;;
21769;SDS011;11046;49.558;8.674;2022-11-20T03:17:53;24.93;;;11.23;;
21769;SDS011;11046;49.558;8.674;2022-11-20T03:20:58;26.40;;;11.20;;
21769;SDS011;11046;49.558;8.674;2022-11-20T03:23:59;28.53;;;12.13;;
21769;SDS011;11046;49.558;8.674;2022-11-20T03:26:59;24.53;;;10.90;;
21769;SDS011;11046;49.558;8.674;2022-11-20T03:30:00;24.33;;;11.30;;
21769;SDS011;11046;49.558;8.674;2022-11-20T03:33:01;24.60;;;10.87;;
21769;SDS011;11046;49.558;8.674;2022-11-20T03:36:03;26.10;;;11.33;;
21769;SDS011;11046;49.558;8.674;2022-11-20T03:39:04;29.17;;;11.83;;
21769;SDS011;11046;49.558;8.674;2022-11-20T03:42:05;26.80;;;11.57;;
21769;SDS011;11046;49.558;8.674;2022-11-20T03:45:25;33.07;;;13.30;;
21769;SDS011;11046;49.558;8.674;2022-11-20T03:48:26;30.73;;;12.90;;
21769;SDS011;11046;49.558;8.674;2022-11-20T03:51:28;29.17;;;12.10;;
21769;SDS011;11046;49.558;8.674;2022-11-20T03:54:30;29.30;;;12.63;;
21769;SDS011;11046;49.558;8.674;2022-11-20T03:57:31;27.60;;;12.50;;
21769;SDS011;11046;49.558;8.674;2022-11-20T04:00:31;29.10;;;12.23;;
21769;SDS011;11046;49.558;8.674;2022-11-20T04:03:32;32.50;;;12.83;;
21769;SDS011;11046;49.558;8.674;2022-11-20T04:06:34;31.40;;;13.63;;
21769;SDS011;11046;49.558;8.674;2022-11-20T04:09:36;34.53;;;13.57;;
21769;SDS011;11046;49.558;8.674;2022-11-20T04:12:37;35.10;;;13.30;;
21769;SDS011;11046;49.558;8.674;2022-11-20T04:15:37;33.33;;;13.60;;
21769;SDS011;11046;49.558;8.674;2022-11-20T04:18:38;30.67;;;12.83;;
21769;SDS011;11046;49.558;8.674;2022-11-20T04:21:39;30.93;;;12.50;;
21769;SDS011;11046;49.558;8.674;2022-11-20T04:24:39;29.90;;;13.03;;
21769;SDS011;11046;49.558;8.674;2022-11-20T04:27:40;31.87;;;12.57;;
21769;SDS011;11046;49.558;8.674;2022-11-20T04:30:41;31.10;;;13.50;;
21769;SDS011;11046;49.558;8.674;2022-11-20T04:33:42;34.30;;;13.60;;
21769;SDS011;11046;49.558;8.674;2022-11-20T04:36:42;31.10;;;13.37;;
21769;SDS011;11046;49.558;8.674;2022-11-20T04:39:43;32.07;;;13.77;;
21769;SDS011;11046;49.558;8.674;2022-11-20T04:42:44;29.17;;;12.57;;
21769;SDS011;11046;49.558;8.674;2022-11-20T04:45:49;29.77;;;12.77;;
21769;SDS011;11046;49.558;8.674;2022-11-20T04:48:51;35.37;;;13.37;;
21769;SDS011;11046;49.558;8.674;2022-11-20T04:51:55;31.80;;;13.77;;
21769;SDS011;11046;49.558;8.674;2022-11-20T04:54:55;33.13;;;13.50;;
21769;SDS011;11046;49.558;8.674;2022-11-20T04:57:56;30.23;;;13.03;;
21769;SDS011;11046;49.558;8.674;2022-11-20T05:01:00;32.00;;;14.27;;
21769;SDS011;11046;49.558;8.674;2022-11-20T05:04:05;32.60;;;13.23;;
21769;SDS011;11046;49.558;8.674;2022-11-20T05:07:06;37.93;;;14.83;;
21769;SDS011;11046;49.558;8.674;2022-11-20T05:10:06;41.20;;;16.00;;
21769;SDS011;11046;49.558;8.674;2022-11-20T05:13:07;37.27;;;14.83;;
21769;SDS011;11046;49.558;8.674;2022-11-20T05:16:09;31.30;;;14.37;;
21769;SDS011;11046;49.558;8.674;2022-11-20T05:19:10;32.60;;;13.80;;
21769;SDS011;11046;49.558;8.674;2022-11-20T05:22:11;30.60;;;13.90;;
21769;SDS011;11046;49.558;8.674;2022-11-20T05:25:12;35.07;;;13.33;;
21769;SDS011;11046;49.558;8.674;2022-11-20T05:28:12;33.23;;;13.97;;
21769;SDS011;11046;49.558;8.674;2022-11-20T05:31:15;31.03;;;12.83;;
21769;SDS011;11046;49.558;8.674;2022-11-20T05:34:20;30.03;;;12.13;;
21769;SDS011;11046;49.558;8.674;2022-11-20T05:37:20;31.27;;;12.83;;
21769;SDS011;11046;49.558;8.674;2022-11-20T05:40:21;27.33;;;13.00;;
21769;SDS011;11046;49.558;8.674;2022-11-20T05:43:22;29.40;;;13.13;;
21769;SDS011;11046;49.558;8.674;2022-11-20T05:46:22;31.10;;;13.07;;
21769;SDS011;11046;49.558;8.674;2022-11-20T05:49:23;32.10;;;12.37;;
21769;SDS011;11046;49.558;8.674;2022-11-20T05:52:23;30.00;;;12.73;;
21769;SDS011;11046;49.558;8.674;2022-11-20T05:55:24;29.53;;;13.40;;
21769;SDS011;11046;49.558;8.674;2022-11-20T05:58:25;30.27;;;12.23;;
21769;SDS011;11046;49.558;8.674;2022-11-20T06:01:25;33.13;;;15.00;;
21769;SDS011;11046;49.558;8.674;2022-11-20T06:04:26;32.73;;;13.30;;
21769;SDS011;11046;49.558;8.674;2022-11-20T06:07:27;30.93;;;12.80;;
21769;SDS011;11046;49.558;8.674;2022-11-20T06:10:27;30.77;;;13.47;;
21769;SDS011;11046;49.558;8.674;2022-11-20T06:13:28;34.10;;;13.80;;
21769;SDS011;11046;49.558;8.674;2022-11-20T06:16:28;37.03;;;15.13;;
21769;SDS011;11046;49.558;8.674;2022-11-20T06:19:29;34.03;;;14.83;;
21769;SDS011;11046;49.558;8.674;2022-11-20T06:22:29;36.77;;;15.03;;
21769;SDS011;11046;49.558;8.674;2022-11-20T06:25:30;34.57;;;14.20;;
21769;SDS011;11046;49.558;8.674;2022-11-20T06:28:31;39.23;;;15.00;;
21769;SDS011;11046;49.558;8.674;2022-11-20T06:31:32;36.00;;;14.63;;
21769;SDS011;11046;49.558;8.674;2022-11-20T06:34:37;37.77;;;14.97;;
21769;SDS011;11046;49.558;8.674;2022-11-20T06:37:38;35.63;;;15.13;;
21769;SDS011;11046;49.558;8.674;2022-11-20T06:40:42;30.93;;;13.50;;
21769;SDS011;11046;49.558;8.674;2022-11-20T06:43:43;36.63;;;14.60;;
21769;SDS011;11046;49.558;8.674;2022-11-20T06:46:44;34.23;;;13.83;;
21769;SDS011;11046;49.558;8.674;2022-11-20T06:49:44;36.87;;;14.17;;
21769;SDS011;11046;49.558;8.674;2022-11-20T06:52:45;33.23;;;14.20;;
21769;SDS011;11046;49.558;8.674;2022-11-20T06:55:46;36.77;;;15.70;;
21769;SDS011;11046;49.558;8.674;2022-11-20T06:58:47;40.27;;;14.77;;
21769;SDS011;11046;49.558;8.674;2022-11-20T07:01:48;38.83;;;15.63;;
21769;SDS011;11046;49.558;8.674;2022-11-20T07:04:48;37.10;;;15.97;;
21769;SDS011;11046;49.558;8.674;2022-11-20T07:07:49;37.23;;;15.00;;
21769;SDS011;11046;49.558;8.674;2022-11-20T07:10:49;41.13;;;14.40;;
21769;SDS011;11046;49.558;8.674;2022-11-20T07:13:50;38.27;;;15.13;;
21769;SDS011;11046;49.558;8.674;2022-11-20T07:16:51;40.27;;;16.10;;
21769;SDS011;11046;49.558;8.674;2022-11-20T07:19:51;36.80;;;14.87;;
21769;SDS011;11046;49.558;8.674;2022-11-20T07:22:56;40.57;;;16.83;;
21769;SDS011;11046;49.558;8.674;2022-11-20T07:25:57;39.67;;;16.00;;
21769;SDS011;11046;49.558;8.674;2022-11-20T07:28:58;41.23;;;15.20;;
21769;SDS011;11046;49.558;8.674;2022-11-20T07:31:58;40.87;;;15.97;;
21769;SDS011;11046;49.558;8.674;2022-11-20T07:34:59;42.70;;;16.87;;
21769;SDS011;11046;49.558;8.674;2022-11-20T07:38:00;40.67;;;16.23;;
21769;SDS011;11046;49.558;8.674;2022-11-20T07:41:00;41.90;;;16.13;;
21769;SDS011;11046;49.558;8.674;2022-11-20T07:44:01;41.47;;;16.90;;
21769;SDS011;11046;49.558;8.674;2022-11-20T07:47:02;44.53;;;16.77;;
21769;SDS011;11046;49.558;8.674;2022-11-20T07:50:02;44.57;;;17.57;;
21769;SDS011;11046;49.558;8.674;2022-11-20T07:53:04;42.67;;;17.40;;
21769;SDS011;11046;49.558;8.674;2022-11-20T07:56:05;45.03;;;17.33;;
21769;SDS011;11046;49.558;8.674;2022-11-20T07:59:06;39.83;;;16.77;;
21769;SDS011;11046;49.558;8.674;2022-11-20T08:02:09;57.97;;;22.80;;
21769;SDS011;11046;49.558;8.674;2022-11-20T08:05:11;53.00;;;21.27;;
21769;SDS011;11046;49.558;8.674;2022-11-20T08:08:12;42.13;;;17.43;;
21769;SDS011;11046;49.558;8.674;2022-11-20T08:11:13;44.40;;;17.13;;
21769;SDS011;11046;49.558;8.674;2022-11-20T08:14:37;42.80;;;17.87;;
21769;SDS011;11046;49.558;8.674;2022-11-20T08:17:37;54.00;;;17.77;;
21769;SDS011;11046;49.558;8.674;2022-11-20T08:20:38;48.10;;;20.73;;
21769;SDS011;11046;49.558;8.674;2022-11-20T08:23:38;50.50;;;19.30;;
21769;SDS011;11046;49.558;8.674;2022-11-20T08:26:39;48.03;;;20.57;;
21769;SDS011;11046;49.558;8.674;2022-11-20T08:29:41;44.77;;;18.93;;
21769;SDS011;11046;49.558;8.674;2022-11-20T08:32:41;47.77;;;17.73;;
21769;SDS011;11046;49.558;8.674;2022-11-20T08:35:42;42.13;;;16.53;;
21769;SDS011;11046;49.558;8.674;2022-11-20T08:38:46;49.63;;;17.33;;
21769;SDS011;11046;49.558;8.674;2022-11-20T08:41:48;52.43;;;17.27;;
21769;SDS011;11046;49.558;8.674;2022-11-20T08:44:48;50.03;;;18.87;;
21769;SDS011;11046;49.558;8.674;2022-11-20T08:47:49;51.40;;;19.30;;
21769;SDS011;11046;49.558;8.674;2022-11-20T08:50:49;57.07;;;19.73;;
21769;SDS011;11046;49.558;8.674;2022-11-20T08:53:50;52.77;;;19.10;;
21769;SDS011;11046;49.558;8.674;2022-11-20T08:56:51;51.10;;;18.60;;
21769;SDS011;11046;49.558;8.674;2022-11-20T08:59:52;56.73;;;20.23;;
21769;SDS011;11046;49.558;8.674;2022-11-20T09:02:52;56.03;;;20.97;;
21769;SDS011;11046;49.558;8.674;2022-11-20T09:05:57;56.90;;;21.67;;
21769;SDS011;11046;49.558;8.674;2022-11-20T09:08:59;57.83;;;21.10;;
21769;SDS011;11046;49.558;8.674;2022-11-20T09:12:00;66.83;;;22.07;;
21769;SDS011;11046;49.558;8.674;2022-11-20T09:15:00;64.27;;;22.27;;
21769;SDS011;11046;49.558;8.674;2022-11-20T09:18:02;56.97;;;21.57;;
21769;SDS011;11046;49.558;8.674;2022-11-20T09:21:06;60.37;;;22.13;;
21769;SDS011;11046;49.558;8.674;2022-11-20T09:24:13;62.70;;;22.53;;
21769;SDS011;11046;49.558;8.674;2022-11-20T09:27:14;61.23;;;21.67;;
21769;SDS011;11046;49.558;8.674;2022-11-20T09:30:15;63.93;;;21.73;;
21769;SDS011;11046;49.558;8.674;2022-11-20T09:33:16;68.40;;;23.90;;
21769;SDS011;11046;49.558;8.674;2022-11-20T09:36:16;59.73;;;22.27;;
21769;SDS011;11046;49.558;8.674;2022-11-20T09:39:18;66.93;;;23.73;;
21769;SDS011;11046;49.558;8.674;2022-11-20T09:45:45;56.10;;;20.17;;
21769;SDS011;11046;49.558;8.674;2022-11-20T09:55:57;62.23;;;21.13;;
21769;SDS011;11046;49.558;8.674;2022-11-20T09:59:02;54.43;;;19.33;;
21769;SDS011;11046;49.558;8.674;2022-11-20T10:05:28;55.17;;;19.87;;
21769;SDS011;11046;49.558;8.674;2022-11-20T10:08:41;54.20;;;18.20;;
21769;SDS011;11046;49.558;8.674;2022-11-20T10:15:36;51.70;;;18.63;;
21769;SDS011;11046;49.558;8.674;2022-11-20T10:18:51;50.90;;;19.60;;
21769;SDS011;11046;49.558;8.674;2022-11-20T10:22:20;56.07;;;19.97;;
21769;SDS011;11046;49.558;8.674;2022-11-20T10:25:38;60.87;;;21.20;;
21769;SDS011;11046;49.558;8.674;2022-11-20T10:32:11;63.87;;;24.10;;
21769;SDS011;11046;49.558;8.674;2022-11-20T10:38:36;56.13;;;19.90;;
21769;SDS011;11046;49.558;8.674;2022-11-20T10:41:40;66.47;;;22.83;;
21769;SDS011;11046;49.558;8.674;2022-11-20T10:44:42;61.00;;;21.97;;
21769;SDS011;11046;49.558;8.674;2022-11-20T10:57:52;65.47;;;22.17;;
21769;SDS011;11046;49.558;8.674;2022-11-20T11:01:04;70.00;;;22.87;;
21769;SDS011;11046;49.558;8.674;2022-11-20T11:04:07;62.67;;;22.93;;
21769;SDS011;11046;49.558;8.674;2022-11-20T11:07:35;66.30;;;22.23;;
21769;SDS011;11046;49.558;8.674;2022-11-20T11:10:39;62.23;;;23.30;;
21769;SDS011;11046;49.558;8.674;2022-11-20T11:13:42;65.20;;;24.10;;
21769;SDS011;11046;49.558;8.674;2022-11-20T11:16:56;55.03;;;21.13;;
21769;SDS011;11046;49.558;8.674;2022-11-20T11:23:22;62.87;;;22.13;;
21769;SDS011;11046;49.558;8.674;2022-11-20T11:26:30;55.60;;;21.23;;
21769;SDS011;11046;49.558;8.674;2022-11-20T11:29:31;57.70;;;23.00;;
21769;SDS011;11046;49.558;8.674;2022-11-20T11:32:31;72.07;;;24.07;;
21769;SDS011;11046;49.558;8.674;2022-11-20T11:35:32;58.60;;;24.23;;
21769;SDS011;11046;49.558;8.674;2022-11-20T11:38:43;67.77;;;25.73;;
21769;SDS011;11046;49.558;8.674;2022-11-20T11:41:44;61.83;;;24.20;;
21769;SDS011;11046;49.558;8.674;2022-11-20T11:44:46;60.97;;;22.10;;
21769;SDS011;11046;49.558;8.674;2022-11-20T11:48:07;57.77;;;20.00;;
21769;SDS011;11046;49.558;8.674;2022-11-20T11:51:09;52.23;;;19.93;;
21769;SDS011;11046;49.558;8.674;2022-11-20T11:54:17;63.90;;;23.80;;
21769;SDS011;11046;49.558;8.674;2022-11-20T11:57:26;58.43;;;21.73;;
21769;SDS011;11046;49.558;8.674;2022-11-20T12:00:36;49.80;;;20.43;;
21769;SDS011;11046;49.558;8.674;2022-11-20T12:03:40;56.47;;;20.57;;
21769;SDS011;11046;49.558;8.674;2022-11-20T12:06:45;48.30;;;20.03;;
21769;SDS011;11046;49.558;8.674;2022-11-20T12:09:52;47.70;;;19.37;;
21769;SDS011;11046;49.558;8.674;2022-11-20T12:12:55;49.37;;;20.83;;
21769;SDS011;11046;49.558;8.674;2022-11-20T12:16:02;51.50;;;21.33;;
21769;SDS011;11046;49.558;8.674;2022-11-20T12:19:07;56.40;;;23.30;;
21769;SDS011;11046;49.558;8.674;2022-11-20T12:25:27;49.57;;;22.33;;
21769;SDS011;11046;49.558;8.674;2022-11-20T12:28:47;48.83;;;22.47;;
21769;SDS011;11046;49.558;8.674;2022-11-20T12:42:02;49.77;;;20.40;;
21769;SDS011;11046;49.558;8.674;2022-11-20T12:48:53;50.17;;;21.40;;
21769;SDS011;11046;49.558;8.674;2022-11-20T12:52:15;48.20;;;20.57;;
21769;SDS011;11046;49.558;8.674;2022-11-20T12:56:01;52.07;;;22.47;;
21769;SDS011;11046;49.558;8.674;2022-11-20T12:59:30;47.37;;;21.13;;
21769;SDS011;11046;49.558;8.674;2022-11-20T13:06:12;50.17;;;21.00;;
21769;SDS011;11046;49.558;8.674;2022-11-20T13:09:18;46.60;;;19.93;;
21769;SDS011;11046;49.558;8.674;2022-11-20T13:18:53;51.53;;;23.17;;
21769;SDS011;11046;49.558;8.674;2022-11-20T13:21:54;57.67;;;25.30;;
21769;SDS011;11046;49.558;8.674;2022-11-20T13:24:55;54.70;;;26.50;;
21769;SDS011;11046;49.558;8.674;2022-11-20T13:27:56;55.70;;;24.07;;
21769;SDS011;11046;49.558;8.674;2022-11-20T13:30:58;55.10;;;24.00;;
21769;SDS011;11046;49.558;8.674;2022-11-20T13:34:00;45.43;;;19.43;;
21769;SDS011;11046;49.558;8.674;2022-11-20T13:37:04;38.23;;;19.77;;
21769;SDS011;11046;49.558;8.674;2022-11-20T13:43:15;48.83;;;21.10;;
21769;SDS011;11046;49.558;8.674;2022-11-20T13:46:40;47.07;;;22.33;;
21769;SDS011;11046;49.558;8.674;2022-11-20T13:49:43;43.70;;;21.73;;
21769;SDS011;11046;49.558;8.674;2022-11-20T13:52:55;40.10;;;20.27;;
21769;SDS011;11046;49.558;8.674;2022-11-20T14:02:34;33.00;;;16.50;;
21769;SDS011;11046;49.558;8.674;2022-11-20T14:05:56;38.07;;;19.67;;
21769;SDS011;11046;49.558;8.674;2022-11-20T14:09:00;36.97;;;18.90;;
21769;SDS011;11046;49.558;8.674;2022-11-20T14:12:01;39.13;;;17.60;;
21769;SDS011;11046;49.558;8.674;2022-11-20T14:15:02;35.47;;;16.17;;
21769;SDS011;11046;49.558;8.674;2022-11-20T14:18:11;43.27;;;18.93;;
21769;SDS011;11046;49.558;8.674;2022-11-20T14:21:23;45.90;;;18.53;;
21769;SDS011;11046;49.558;8.674;2022-11-20T14:24:29;39.27;;;18.17;;
21769;SDS011;11046;49.558;8.674;2022-11-20T14:27:32;40.60;;;17.37;;
21769;SDS011;11046;49.558;8.674;2022-11-20T14:30:38;28.47;;;15.33;;
21769;SDS011;11046;49.558;8.674;2022-11-20T14:33:44;28.20;;;15.10;;
21769;SDS011;11046;49.558;8.674;2022-11-20T14:36:44;70.57;;;30.43;;
21769;SDS011;11046;49.558;8.674;2022-11-20T14:39:50;48.60;;;24.63;;
21769;SDS011;11046;49.558;8.674;2022-11-20T14:42:55;33.10;;;16.43;;
21769;SDS011;11046;49.558;8.674;2022-11-20T14:46:02;30.13;;;15.90;;
21769;SDS011;11046;49.558;8.674;2022-11-20T14:49:08;30.80;;;14.53;;
21769;SDS011;11046;49.558;8.674;2022-11-20T14:52:11;23.43;;;11.90;;
21769;SDS011;11046;49.558;8.674;2022-11-20T14:55:13;20.93;;;10.63;;
21769;SDS011;11046;49.558;8.674;2022-11-20T14:58:25;25.33;;;12.60;;
21769;SDS011;11046;49.558;8.674;2022-11-20T15:01:29;24.43;;;11.37;;
21769;SDS011;11046;49.558;8.674;2022-11-20T15:04:31;35.77;;;17.57;;
21769;SDS011;11046;49.558;8.674;2022-11-20T15:07:32;21.70;;;13.20;;
21769;SDS011;11046;49.558;8.674;2022-11-20T15:10:35;22.03;;;11.73;;
21769;SDS011;11046;49.558;8.674;2022-11-20T15:13:37;18.83;;;8.67;;
21769;SDS011;11046;49.558;8.674;2022-11-20T15:16:38;20.63;;;8.90;;
21769;SDS011;11046;49.558;8.674;2022-11-20T15:19:39;22.53;;;9.70;;
21769;SDS011;11046;49.558;8.674;2022-11-20T15:22:40;21.33;;;8.83;;
21769;SDS011;11046;49.558;8.674;2022-11-20T15:25:40;19.37;;;8.33;;
21769;SDS011;11046;49.558;8.674;2022-11-20T15:28:45;19.97;;;8.10;;
21769;SDS011;11046;49.558;8.674;2022-11-20T15:31:47;21.90;;;9.00;;
21769;SDS011;11046;49.558;8.674;2022-11-20T15:34:48;16.03;;;8.30;;
21769;SDS011;11046;49.558;8.674;2022-11-20T15:37:48;20.33;;;9.80;;
21769;SDS011;11046;49.558;8.674;2022-11-20T15:40:49;24.53;;;10.40;;
21769;SDS011;11046;49.558;8.674;2022-11-20T15:43:50;20.53;;;8.47;;
21769;SDS011;11046;49.558;8.674;2022-11-20T15:46:50;23.60;;;9.03;;
21769;SDS011;11046;49.558;8.674;2022-11-20T15:49:51;19.67;;;8.77;;
21769;SDS011;11046;49.558;8.674;2022-11-20T15:52:51;46.67;;;27.93;;
21769;SDS011;11046;49.558;8.674;2022-11-20T15:55:52;18.57;;;10.83;;
21769;SDS011;11046;49.558;8.674;2022-11-20T15:58:53;15.37;;;6.83;;
21769;SDS011;11046;49.558;8.674;2022-11-20T16:01:53;17.03;;;7.83;;
21769;SDS011;11046;49.558;8.674;2022-11-20T16:04:54;14.27;;;7.40;;
21769;SDS011;11046;49.558;8.674;2022-11-20T16:07:55;19.37;;;7.37;;
21769;SDS011;11046;49.558;8.674;2022-11-20T16:10:56;15.87;;;8.03;;
21769;SDS011;11046;49.558;8.674;2022-11-20T16:13:56;13.00;;;6.30;;
21769;SDS011;11046;49.558;8.674;2022-11-20T16:17:15;14.73;;;6.30;;
21769;SDS011;11046;49.558;8.674;2022-11-20T16:20:36;12.43;;;5.57;;
21769;SDS011;11046;49.558;8.674;2022-11-20T16:23:36;7.67;;;4.20;;
21769;SDS011;11046;49.558;8.674;2022-11-20T16:26:37;10.33;;;5.13;;
21769;SDS011;11046;49.558;8.674;2022-11-20T16:29:38;11.93;;;5.47;;
21769;SDS011;11046;49.558;8.674;2022-11-20T16:32:39;13.07;;;7.17;;
21769;SDS011;11046;49.558;8.674;2022-11-20T16:35:39;20.97;;;11.37;;
21769;SDS011;11046;49.558;8.674;2022-11-20T16:38:41;11.13;;;5.10;;
21769;SDS011;11046;49.558;8.674;2022-11-20T16:41:41;13.03;;;4.97;;
21769;SDS011;11046;49.558;8.674;2022-11-20T16:44:43;9.57;;;4.77;;
21769;SDS011;11046;49.558;8.674;2022-11-20T16:47:45;11.20;;;4.70;;
21769;SDS011;11046;49.558;8.674;2022-11-20T16:50:46;14.17;;;4.80;;
21769;SDS011;11046;49.558;8.674;2022-11-20T16:53:49;9.73;;;4.23;;
21769;SDS011;11046;49.558;8.674;2022-11-20T16:56:50;11.27;;;5.07;;
21769;SDS011;11046;49.558;8.674;2022-11-20T16:59:52;10.67;;;4.80;;
21769;SDS011;11046;49.558;8.674;2022-11-20T17:02:54;9.27;;;4.13;;
21769;SDS011;11046;49.558;8.674;2022-11-20T17:05:56;10.23;;;5.37;;
21769;SDS011;11046;49.558;8.674;2022-11-20T17:08:57;11.57;;;5.53;;
21769;SDS011;11046;49.558;8.674;2022-11-20T17:11:59;25.23;;;10.13;;
21769;SDS011;11046;49.558;8.674;2022-11-20T17:15:00;12.73;;;5.60;;
21769;SDS011;11046;49.558;8.674;2022-11-20T17:18:01;11.80;;;4.57;;
21769;SDS011;11046;49.558;8.674;2022-11-20T17:21:03;10.40;;;5.83;;
21769;SDS011;11046;49.558;8.674;2022-11-20T17:24:07;14.80;;;5.67;;
21769;SDS011;11046;49.558;8.674;2022-11-20T17:27:09;10.53;;;4.70;;
21769;SDS011;11046;49.558;8.674;2022-11-20T17:30:11;12.30;;;4.93;;
21769;SDS011;11046;49.558;8.674;2022-11-20T17:33:12;7.77;;;3.33;;
21769;SDS011;11046;49.558;8.674;2022-11-20T17:36:13;7.70;;;3.87;;
21769;SDS011;11046;49.558;8.674;2022-11-20T17:39:16;7.80;;;4.10;;
21769;SDS011;11046;49.558;8.674;2022-11-20T17:42:19;7.97;;;4.47;;
21769;SDS011;11046;49.558;8.674;2022-11-20T17:45:27;11.47;;;4.20;;
21769;SDS011;11046;49.558;8.674;2022-11-20T17:48:29;9.03;;;4.33;;
21769;SDS011;11046;49.558;8.674;2022-11-20T17:51:31;9.33;;;4.07;;
21769;SDS011;11046;49.558;8.674;2022-11-20T17:54:34;7.60;;;4.40;;
21769;SDS011;11046;49.558;8.674;2022-11-20T17:57:35;9.13;;;4.00;;
21769;SDS011;11046;49.558;8.674;2022-11-20T18:00:52;9.50;;;3.67;;
21769;SDS011;11046;49.558;8.674;2022-11-20T18:03:53;10.10;;;4.60;;
21769;SDS011;11046;49.558;8.674;2022-11-20T18:06:55;8.93;;;4.80;;
21769;SDS011;11046;49.558;8.674;2022-11-20T18:09:56;11.77;;;4.97;;
21769;SDS011;11046;49.558;8.674;2022-11-20T18:12:57;10.97;;;5.43;;
21769;SDS011;11046;49.558;8.674;2022-11-20T18:16:05;12.83;;;4.67;;
21769;SDS011;11046;49.558;8.674;2022-11-20T18:19:07;9.50;;;4.73;;
21769;SDS011;11046;49.558;8.674;2022-11-20T18:22:18;9.30;;;3.83;;
21769;SDS011;11046;49.558;8.674;2022-11-20T18:25:19;7.60;;;3.57;;
21769;SDS011;11046;49.558;8.674;2022-11-20T18:28:20;7.23;;;3.70;;
21769;SDS011;11046;49.558;8.674;2022-11-20T18:31:23;8.60;;;3.33;;
21769;SDS011;11046;49.558;8.674;2022-11-20T18:34:24;7.47;;;3.27;;
21769;SDS011;11046;49.558;8.674;2022-11-20T18:37:24;6.23;;;3.40;;
21769;SDS011;11046;49.558;8.674;2022-11-20T18:40:25;9.83;;;3.77;;
21769;SDS011;11046;49.558;8.674;2022-11-20T18:43:26;6.90;;;3.23;;
21769;SDS011;11046;49.558;8.674;2022-11-20T18:46:46;6.67;;;2.80;;
21769;SDS011;11046;49.558;8.674;2022-11-20T18:49:49;5.37;;;3.17;;
21769;SDS011;11046;49.558;8.674;2022-11-20T18:52:53;6.47;;;3.37;;
21769;SDS011;11046;49.558;8.674;2022-11-20T18:55:54;8.83;;;3.17;;
21769;SDS011;11046;49.558;8.674;2022-11-20T18:58:55;6.90;;;3.10;;
21769;SDS011;11046;49.558;8.674;2022-11-20T19:01:58;7.37;;;2.80;;
21769;SDS011;11046;49.558;8.674;2022-11-20T19:04:58;8.27;;;3.47;;
21769;SDS011;11046;49.558;8.674;2022-11-20T19:07:59;7.00;;;3.00;;
21769;SDS011;11046;49.558;8.674;2022-11-20T19:11:09;7.43;;;3.00;;
21769;SDS011;11046;49.558;8.674;2022-11-20T19:14:11;8.43;;;3.50;;
21769;SDS011;11046;49.558;8.674;2022-11-20T19:17:12;6.10;;;3.03;;
21769;SDS011;11046;49.558;8.674;2022-11-20T19:20:13;5.07;;;2.70;;